Gubkin, Russia
Current Conditions -  °F | °C
As of 6:00 PM on Tuesday 21 Oct 2014 (Local Time) from UUOB Reporting Station
Broken Clouds Broken Clouds  
Wind Chill: 54°   Ceiling: 4000
Heat Index: 54°   Visibility: 6mi
Dew Point: 45°   Wind: 11mph
Humidity: 72%   Direction: 270°W
Pressure: 29.56"   Gusts: NA
Location:  51.28°N, 37.39°E
Report Text: UUOB 211500Z 27005MPS 9999 BKN040CB 12/07 Q1001 29090060 NOSIG
Loading
Personal Weather Stations






























Interactive Weather Map
Tropical Storm Tracking
New forecast layout! Learn more

10-Day Weather Forecast

Advertisements
Track Severe Weather on mobile